createdAt,value
2018-08-11T00:00:44.549Z,12.13
2018-08-11T00:03:12.853Z,11.40
2018-08-11T00:05:41.173Z,10.30
2018-08-11T00:08:09.476Z,10.47
2018-08-11T00:10:37.771Z,11.67
2018-08-11T00:13:06.185Z,11.80
2018-08-11T00:15:34.483Z,12.03
2018-08-11T00:18:02.808Z,10.83
2018-08-11T00:20:31.151Z,11.13
2018-08-11T00:22:59.520Z,10.17
2018-08-11T00:25:27.863Z,9.90
2018-08-11T00:27:56.720Z,10.53
2018-08-11T00:30:25.657Z,10.03
2018-08-11T00:32:54.383Z,9.93
2018-08-11T00:35:23.209Z,9.53
2018-08-11T00:37:51.518Z,9.67
2018-08-11T00:40:20.577Z,10.43
2018-08-11T00:42:49.997Z,8.77
2018-08-11T00:45:18.669Z,9.37
2018-08-11T00:47:47.008Z,9.37
2018-08-11T00:50:21.100Z,9.13
2018-08-11T00:52:49.421Z,9.80
2018-08-11T00:55:17.761Z,9.33
2018-08-11T00:57:46.083Z,9.67
2018-08-11T01:00:16.829Z,8.90
2018-08-11T01:02:45.159Z,8.37
2018-08-11T01:05:18.088Z,8.00
2018-08-11T01:07:46.886Z,7.60
2018-08-11T01:10:15.725Z,7.40
2018-08-11T01:12:44.869Z,7.47
2018-08-11T01:15:16.814Z,7.60
2018-08-11T01:17:45.817Z,7.27
2018-08-11T01:20:14.392Z,7.03
2018-08-11T01:22:43.396Z,7.00
2018-08-11T01:25:12.379Z,6.57
2018-08-11T01:27:40.683Z,6.83
2018-08-11T01:30:12.164Z,7.40
2018-08-11T01:32:40.448Z,7.27
2018-08-11T01:35:09.696Z,7.10
2018-08-11T01:37:38.790Z,6.87
2018-08-11T01:40:08.308Z,7.40
2018-08-11T01:42:36.600Z,6.57
2018-08-11T01:45:05.749Z,6.27
2018-08-11T01:47:34.024Z,6.63
2018-08-11T01:50:02.341Z,6.67
2018-08-11T01:52:30.637Z,6.83
2018-08-11T01:54:58.948Z,7.23
2018-08-11T01:57:27.215Z,6.47
2018-08-11T01:59:55.494Z,6.50
2018-08-11T02:02:23.784Z,6.87
2018-08-11T02:04:52.105Z,6.70
2018-08-11T02:07:20.385Z,6.50
2018-08-11T02:09:48.665Z,6.07
2018-08-11T02:12:16.998Z,6.17
2018-08-11T02:14:45.328Z,5.00
2018-08-11T02:17:13.638Z,5.10
2018-08-11T02:19:41.965Z,4.60
2018-08-11T02:22:10.256Z,4.57
2018-08-11T02:24:38.569Z,4.83
2018-08-11T02:27:07.302Z,4.77
2018-08-11T02:29:35.606Z,4.40
2018-08-11T02:32:03.931Z,4.40
2018-08-11T02:34:32.217Z,4.20
2018-08-11T02:37:00.493Z,4.47
2018-08-11T02:39:28.788Z,3.83
2018-08-11T02:41:57.102Z,4.13
2018-08-11T02:44:25.419Z,3.90
2018-08-11T02:46:53.721Z,4.47
2018-08-11T02:49:22.013Z,4.23
2018-08-11T02:51:50.291Z,4.17
2018-08-11T02:54:18.569Z,3.80
2018-08-11T02:56:46.857Z,3.80
2018-08-11T02:59:19.391Z,3.50
2018-08-11T03:01:47.689Z,3.73
2018-08-11T03:04:15.961Z,3.47
2018-08-11T03:06:44.229Z,3.43
2018-08-11T03:09:12.511Z,3.27
2018-08-11T03:11:40.789Z,3.13
2018-08-11T03:14:09.155Z,3.13
2018-08-11T03:16:37.386Z,2.87
2018-08-11T03:19:05.694Z,3.00
2018-08-11T03:21:33.957Z,3.00
2018-08-11T03:24:02.240Z,2.93
2018-08-11T03:26:30.509Z,3.30
2018-08-11T03:28:58.793Z,2.90
2018-08-11T03:31:27.080Z,3.17
2018-08-11T03:33:55.369Z,3.37
2018-08-11T03:36:23.682Z,3.03
2018-08-11T03:38:51.961Z,3.17
2018-08-11T03:41:20.269Z,3.33
2018-08-11T03:43:48.551Z,3.00
2018-08-11T03:46:16.816Z,3.20
2018-08-11T03:48:45.089Z,3.20
2018-08-11T03:51:13.364Z,3.03
2018-08-11T03:53:41.633Z,2.87
2018-08-11T03:56:09.894Z,3.10
2018-08-11T03:58:38.173Z,2.60
2018-08-11T04:01:06.757Z,3.00
2018-08-11T04:03:35.053Z,2.40
2018-08-11T04:06:03.373Z,2.70
2018-08-11T04:08:31.673Z,3.10
2018-08-11T04:11:00.037Z,2.57
2018-08-11T04:13:28.304Z,2.70
2018-08-11T04:15:56.596Z,2.90
2018-08-11T04:18:24.890Z,2.60
2018-08-11T04:20:53.200Z,2.97
2018-08-11T04:23:21.477Z,2.80
2018-08-11T04:25:49.754Z,2.40
2018-08-11T04:28:18.028Z,2.80
2018-08-11T04:30:46.298Z,2.47
2018-08-11T04:33:14.573Z,2.50
2018-08-11T04:35:42.919Z,2.47
2018-08-11T04:38:11.137Z,2.47
2018-08-11T04:40:39.429Z,2.40
2018-08-11T04:43:07.793Z,2.20
2018-08-11T04:45:36.121Z,2.43
2018-08-11T04:48:04.417Z,2.30
2018-08-11T04:50:32.712Z,2.20
2018-08-11T04:53:00.988Z,2.27
2018-08-11T04:55:29.572Z,2.33
2018-08-11T04:57:57.876Z,2.50
2018-08-11T05:00:26.185Z,2.27
2018-08-11T05:02:54.508Z,2.40
2018-08-11T05:05:22.793Z,2.10
2018-08-11T05:07:51.097Z,2.70
2018-08-11T05:10:19.383Z,2.40
2018-08-11T05:12:47.664Z,2.10
2018-08-11T05:15:15.970Z,2.40
2018-08-11T05:17:44.280Z,2.20
2018-08-11T05:20:12.585Z,2.20
2018-08-11T05:22:40.892Z,2.70
2018-08-11T05:25:09.169Z,2.33
2018-08-11T05:27:37.433Z,2.37
2018-08-11T05:30:05.930Z,2.17
2018-08-11T05:32:34.241Z,2.57
2018-08-11T05:35:02.536Z,2.20
2018-08-11T05:37:30.804Z,2.30
2018-08-11T05:39:59.100Z,2.47
2018-08-11T05:42:27.400Z,2.07
2018-08-11T05:44:55.721Z,2.07
2018-08-11T05:47:23.992Z,2.10
2018-08-11T05:49:52.352Z,2.10
2018-08-11T05:52:20.641Z,2.10
2018-08-11T05:54:48.903Z,2.10
2018-08-11T05:57:17.210Z,1.93
2018-08-11T05:59:45.480Z,1.90
2018-08-11T06:02:13.798Z,2.10
2018-08-11T06:04:42.076Z,1.93
2018-08-11T06:07:10.357Z,2.27
2018-08-11T06:09:38.628Z,2.00
2018-08-11T06:12:06.936Z,1.83
2018-08-11T06:14:35.204Z,2.00
2018-08-11T06:17:03.531Z,1.90
2018-08-11T06:19:31.822Z,1.77
2018-08-11T06:22:00.137Z,2.10
2018-08-11T06:24:28.404Z,1.80
2018-08-11T06:26:56.685Z,1.77
2018-08-11T06:29:24.955Z,1.67
2018-08-11T06:31:53.299Z,1.90
2018-08-11T06:34:21.504Z,1.70
2018-08-11T06:36:49.789Z,1.70
2018-08-11T06:39:18.081Z,1.70
2018-08-11T06:41:46.356Z,1.80
2018-08-11T06:44:14.632Z,1.83
2018-08-11T06:46:42.963Z,1.80
2018-08-11T06:49:11.383Z,1.90
2018-08-11T06:51:39.648Z,2.10
2018-08-11T06:54:07.905Z,1.80
2018-08-11T06:56:36.197Z,2.20
2018-08-11T06:59:04.477Z,2.27
2018-08-11T07:01:32.759Z,2.30
2018-08-11T07:04:01.054Z,2.30
2018-08-11T07:06:29.328Z,1.90
2018-08-11T07:08:57.593Z,2.40
2018-08-11T07:11:25.857Z,2.30
2018-08-11T07:13:54.133Z,2.30
2018-08-11T07:16:22.409Z,2.60
2018-08-11T07:18:50.669Z,2.50
2018-08-11T07:21:19.006Z,2.60
2018-08-11T07:23:47.253Z,2.40
2018-08-11T07:26:15.524Z,2.30
2018-08-11T07:28:43.813Z,2.47
2018-08-11T07:31:12.121Z,2.53
2018-08-11T07:33:40.397Z,2.70
2018-08-11T07:36:08.766Z,2.50
2018-08-11T07:38:36.998Z,2.50
2018-08-11T07:41:05.282Z,2.50
2018-08-11T07:43:33.560Z,3.03
2018-08-11T07:46:01.828Z,2.77
2018-08-11T07:48:30.633Z,3.10
2018-08-11T07:50:58.924Z,2.70
2018-08-11T07:53:27.195Z,2.90
2018-08-11T07:55:55.499Z,2.60
2018-08-11T07:58:23.772Z,3.03
2018-08-11T08:00:52.057Z,3.00
2018-08-11T08:03:20.412Z,2.70
2018-08-11T08:05:48.700Z,2.70
2018-08-11T08:08:16.981Z,3.43
2018-08-11T08:10:45.284Z,3.10
2018-08-11T08:13:13.572Z,3.00
2018-08-11T08:15:41.873Z,2.63
2018-08-11T08:18:10.133Z,2.80
2018-08-11T08:20:38.422Z,2.70
2018-08-11T08:23:06.737Z,3.07
2018-08-11T08:25:35.039Z,3.50
2018-08-11T08:28:03.310Z,3.40
2018-08-11T08:30:31.608Z,3.60
2018-08-11T08:32:59.920Z,3.53
2018-08-11T08:35:28.253Z,3.37
2018-08-11T08:37:56.584Z,4.03
2018-08-11T08:40:24.855Z,3.70
2018-08-11T08:42:53.194Z,4.50
2018-08-11T08:45:21.525Z,3.70
2018-08-11T08:47:49.811Z,3.27
2018-08-11T08:50:18.116Z,3.40
2018-08-11T08:52:46.402Z,3.27
2018-08-11T08:55:14.680Z,2.87
2018-08-11T08:57:42.945Z,2.50
2018-08-11T09:00:11.258Z,2.70
2018-08-11T09:02:39.736Z,2.70
2018-08-11T09:05:08.827Z,2.50
2018-08-11T09:07:37.112Z,2.33
2018-08-11T09:10:05.465Z,2.40
2018-08-11T09:12:33.824Z,2.30
2018-08-11T09:15:02.093Z,2.63
2018-08-11T09:17:30.367Z,2.53
2018-08-11T09:19:58.671Z,2.33
2018-08-11T09:22:26.976Z,2.80
2018-08-11T09:24:55.342Z,2.47
2018-08-11T09:27:23.609Z,2.60
2018-08-11T09:29:51.897Z,2.43
2018-08-11T09:32:20.688Z,2.40
2018-08-11T09:34:49.731Z,2.60
2018-08-11T09:37:18.595Z,2.80
2018-08-11T09:39:47.137Z,2.43
2018-08-11T09:42:15.437Z,2.80
2018-08-11T09:44:43.744Z,2.60
2018-08-11T09:47:12.022Z,3.57
2018-08-11T09:49:40.800Z,3.53
2018-08-11T09:52:09.942Z,3.20
2018-08-11T09:54:38.787Z,2.77
2018-08-11T09:57:07.465Z,2.80
2018-08-11T09:59:35.787Z,3.37
2018-08-11T10:02:09.532Z,2.93
2018-08-11T10:04:38.335Z,3.00
2018-08-11T10:07:06.750Z,5.17
2018-08-11T10:09:35.204Z,2.63
2018-08-11T10:12:03.519Z,2.30
2018-08-11T10:14:31.801Z,2.40
2018-08-11T10:17:00.078Z,2.40
2018-08-11T10:19:28.756Z,2.30
2018-08-11T10:21:57.700Z,2.20
2018-08-11T10:24:26.648Z,2.40
2018-08-11T10:26:55.305Z,2.30
2018-08-11T10:29:23.602Z,2.47
2018-08-11T10:31:51.923Z,2.17
2018-08-11T10:34:20.235Z,1.90
2018-08-11T10:36:48.525Z,2.00
2018-08-11T10:39:16.805Z,1.83
2018-08-11T10:41:45.084Z,2.30
2018-08-11T10:44:13.352Z,2.20
2018-08-11T10:46:41.628Z,2.30
2018-08-11T10:49:09.895Z,2.80
2018-08-11T10:51:38.192Z,2.10
2018-08-11T10:54:06.552Z,2.30
2018-08-11T10:56:37.291Z,2.63
2018-08-11T10:59:05.571Z,2.20
2018-08-11T11:01:33.855Z,2.40
2018-08-11T11:04:02.260Z,2.30
2018-08-11T11:06:30.560Z,1.80
2018-08-11T11:08:58.873Z,3.87
2018-08-11T11:11:27.164Z,2.80
2018-08-11T11:13:55.464Z,2.10
2018-08-11T11:16:23.757Z,2.03
2018-08-11T11:18:52.483Z,2.17
2018-08-11T11:21:20.847Z,1.60
2018-08-11T11:23:49.125Z,1.80
2018-08-11T11:26:17.421Z,1.70
2018-08-11T11:28:45.721Z,2.00
2018-08-11T11:31:14.040Z,2.80
2018-08-11T11:33:42.339Z,2.40
2018-08-11T11:36:10.644Z,2.20
2018-08-11T11:38:38.921Z,2.07
2018-08-11T11:41:07.211Z,2.10
2018-08-11T11:43:35.514Z,2.03
2018-08-11T11:46:03.874Z,2.20
2018-08-11T11:48:34.112Z,2.10
2018-08-11T11:51:04.552Z,2.00
2018-08-11T11:53:34.247Z,2.17
2018-08-11T11:56:04.293Z,2.10
2018-08-11T11:58:34.346Z,2.17
2018-08-11T12:01:04.694Z,2.00
2018-08-11T12:03:34.542Z,2.33
2018-08-11T12:06:04.509Z,1.97
2018-08-11T12:08:34.335Z,1.90
2018-08-11T12:11:04.385Z,2.00
2018-08-11T12:13:34.244Z,2.20
2018-08-11T12:16:04.132Z,2.00
2018-08-11T12:18:33.959Z,1.90
2018-08-11T12:21:03.866Z,2.00
2018-08-11T12:23:33.715Z,2.07
2018-08-11T12:26:03.653Z,2.10
2018-08-11T12:28:33.547Z,2.10
2018-08-11T12:31:03.449Z,2.03
2018-08-11T12:33:33.464Z,2.30
2018-08-11T12:36:03.420Z,2.40
2018-08-11T12:38:33.355Z,2.13
2018-08-11T12:41:03.244Z,2.30
2018-08-11T12:43:32.659Z,2.10
2018-08-11T12:46:01.041Z,2.27
2018-08-11T12:48:29.319Z,2.70
2018-08-11T12:50:57.733Z,2.77
2018-08-11T12:53:26.131Z,35.50
2018-08-11T12:55:54.673Z,3.87
2018-08-11T12:58:23.045Z,2.17
2018-08-11T13:00:51.405Z,2.20
2018-08-11T13:03:19.740Z,2.37
2018-08-11T13:05:48.068Z,2.37
2018-08-11T13:08:16.367Z,2.00
2018-08-11T13:10:44.672Z,2.20
2018-08-11T13:13:13.037Z,2.23
2018-08-11T13:15:41.380Z,2.20
2018-08-11T13:18:09.692Z,2.17
2018-08-11T13:20:38.249Z,2.27
2018-08-11T13:23:06.540Z,1.90
2018-08-11T13:25:34.836Z,2.30
2018-08-11T13:28:03.153Z,2.00
2018-08-11T13:30:31.432Z,2.40
2018-08-11T13:32:59.821Z,2.30
2018-08-11T13:35:28.301Z,2.23
2018-08-11T13:37:56.596Z,2.10
2018-08-11T13:40:24.921Z,2.37
2018-08-11T13:42:53.212Z,2.30
2018-08-11T13:45:21.518Z,2.23
2018-08-11T13:47:49.792Z,2.17
2018-08-11T13:50:18.353Z,2.07
2018-08-11T13:52:46.664Z,2.00
2018-08-11T13:55:15.069Z,2.73
2018-08-11T13:57:43.517Z,2.00
2018-08-11T14:00:11.956Z,1.80
2018-08-11T14:02:40.252Z,1.90
2018-08-11T14:05:08.656Z,1.80
2018-08-11T14:07:37.016Z,1.77
2018-08-11T14:10:07.151Z,1.63
2018-08-11T14:12:35.427Z,1.70
2018-08-11T14:15:04.195Z,1.93
2018-08-11T14:17:32.437Z,1.80
2018-08-11T14:20:00.781Z,1.47
2018-08-11T14:22:29.068Z,1.40
2018-08-11T14:24:57.388Z,1.80
2018-08-11T14:27:25.648Z,1.70
2018-08-11T14:29:54.061Z,1.90
2018-08-11T14:32:22.377Z,1.90
2018-08-11T14:34:50.661Z,1.77
2018-08-11T14:37:18.965Z,1.57
2018-08-11T14:39:47.273Z,1.40
2018-08-11T14:42:15.559Z,1.60
2018-08-11T14:44:43.848Z,2.00
2018-08-11T14:47:12.210Z,1.77
2018-08-11T14:49:40.528Z,1.60
2018-08-11T14:52:08.833Z,1.80
2018-08-11T14:54:37.148Z,2.17
2018-08-11T14:57:05.831Z,1.67
2018-08-11T14:59:36.323Z,1.70
2018-08-11T15:02:05.020Z,1.90
2018-08-11T15:04:33.699Z,1.97
2018-08-11T15:07:04.555Z,1.60
2018-08-11T15:09:34.091Z,1.73
2018-08-11T15:12:02.402Z,1.70
2018-08-11T15:14:30.681Z,1.90
2018-08-11T15:16:58.996Z,1.70
2018-08-11T15:19:27.280Z,1.60
2018-08-11T15:21:55.613Z,1.90
2018-08-11T15:24:23.908Z,1.80
2018-08-11T15:26:52.215Z,1.73
2018-08-11T15:29:20.488Z,1.77
2018-08-11T15:31:48.804Z,1.50
2018-08-11T15:34:17.081Z,1.60
2018-08-11T15:36:45.361Z,1.70
2018-08-11T15:39:14.283Z,1.60
2018-08-11T15:41:42.840Z,1.60
2018-08-11T15:44:11.180Z,1.60
2018-08-11T15:46:39.494Z,2.00
2018-08-11T15:49:07.816Z,1.40
2018-08-11T15:51:36.149Z,1.73
2018-08-11T15:54:04.437Z,1.50
2018-08-11T15:56:32.723Z,1.40
2018-08-11T15:59:01.013Z,2.00
2018-08-11T16:01:29.303Z,1.67
2018-08-11T16:03:57.649Z,1.80
2018-08-11T16:06:25.980Z,1.60
2018-08-11T16:08:54.248Z,1.63
2018-08-11T16:11:22.585Z,1.60
2018-08-11T16:13:50.873Z,1.60
2018-08-11T16:16:19.150Z,1.40
2018-08-11T16:18:47.484Z,1.50
2018-08-11T16:21:15.780Z,1.50
2018-08-11T16:23:44.206Z,1.40
2018-08-11T16:26:12.561Z,1.60
2018-08-11T16:28:40.883Z,1.47
2018-08-11T16:31:09.153Z,1.57
2018-08-11T16:33:37.434Z,1.70
2018-08-11T16:36:06.686Z,1.97
2018-08-11T16:38:35.010Z,1.53
2018-08-11T16:41:03.501Z,1.40
2018-08-11T16:43:31.829Z,1.60
2018-08-11T16:46:00.099Z,1.63
2018-08-11T16:48:28.375Z,1.70
2018-08-11T16:50:56.645Z,1.60
2018-08-11T16:53:24.933Z,1.20
2018-08-11T16:55:53.221Z,1.33
2018-08-11T16:58:21.580Z,1.50
2018-08-11T17:00:49.854Z,1.40
2018-08-11T17:03:18.121Z,1.60
2018-08-11T17:05:46.471Z,1.60
2018-08-11T17:08:14.693Z,1.87
2018-08-11T17:10:42.982Z,1.67
2018-08-11T17:13:11.261Z,1.60
2018-08-11T17:15:39.546Z,1.43
2018-08-11T17:18:07.821Z,1.40
2018-08-11T17:20:36.153Z,1.40
2018-08-11T17:23:04.417Z,1.50
2018-08-11T17:25:32.689Z,1.57
2018-08-11T17:28:00.980Z,1.50
2018-08-11T17:30:29.253Z,1.37
2018-08-11T17:32:57.624Z,1.83
2018-08-11T17:35:25.907Z,1.70
2018-08-11T17:37:54.173Z,1.70
2018-08-11T17:40:22.489Z,1.63
2018-08-11T17:42:50.767Z,1.70
2018-08-11T17:45:19.072Z,1.53
2018-08-11T17:47:47.371Z,1.60
2018-08-11T17:50:15.692Z,1.60
2018-08-11T17:52:44.005Z,1.70
2018-08-11T17:55:12.337Z,2.00
2018-08-11T17:57:40.636Z,1.70
2018-08-11T18:00:08.912Z,1.67
2018-08-11T18:02:37.216Z,1.80
2018-08-11T18:05:05.840Z,1.60
2018-08-11T18:07:34.153Z,1.97
2018-08-11T18:10:02.412Z,1.70
2018-08-11T18:12:30.701Z,1.70
2018-08-11T18:14:58.972Z,1.60
2018-08-11T18:17:27.273Z,1.50
2018-08-11T18:19:55.552Z,1.70
2018-08-11T18:22:23.820Z,1.70
2018-08-11T18:24:52.104Z,1.80
2018-08-11T18:27:20.401Z,1.77
2018-08-11T18:29:48.684Z,1.70
2018-08-11T18:32:17.005Z,1.90
2018-08-11T18:34:45.243Z,1.70
2018-08-11T18:37:13.516Z,2.03
2018-08-11T18:39:41.790Z,1.73
2018-08-11T18:42:10.061Z,2.00
2018-08-11T18:44:38.337Z,2.13
2018-08-11T18:47:06.670Z,1.90
2018-08-11T18:49:34.952Z,2.00
2018-08-11T18:52:03.273Z,2.23
2018-08-11T18:54:31.529Z,2.00
2018-08-11T18:56:59.832Z,2.50
2018-08-11T18:59:28.128Z,2.50
2018-08-11T19:01:56.398Z,2.50
2018-08-11T19:04:24.761Z,2.57
2018-08-11T19:06:53.053Z,3.33
2018-08-11T19:09:21.328Z,2.57
2018-08-11T19:11:49.649Z,2.80
2018-08-11T19:14:17.998Z,3.00
2018-08-11T19:16:46.308Z,4.07
2018-08-11T19:19:14.617Z,4.50
2018-08-11T19:21:42.896Z,3.57
2018-08-11T19:24:11.181Z,4.13
2018-08-11T19:26:39.489Z,4.23
2018-08-11T19:29:07.861Z,3.63
2018-08-11T19:31:36.225Z,3.70
2018-08-11T19:34:04.512Z,3.67
2018-08-11T19:36:32.889Z,3.53
2018-08-11T19:39:01.208Z,3.40
2018-08-11T19:41:29.497Z,3.53
2018-08-11T19:43:57.884Z,3.53
2018-08-11T19:46:26.237Z,4.10
2018-08-11T19:48:54.531Z,3.70
2018-08-11T19:51:22.820Z,3.60
2018-08-11T19:53:51.121Z,3.67
2018-08-11T19:56:19.434Z,4.47
2018-08-11T19:58:47.772Z,4.03
2018-08-11T20:01:16.080Z,3.70
2018-08-11T20:03:44.371Z,4.23
2018-08-11T20:06:12.680Z,3.93
2018-08-11T20:08:40.944Z,4.23
2018-08-11T20:11:09.385Z,4.70
2018-08-11T20:13:37.719Z,4.30
2018-08-11T20:16:06.067Z,4.50
2018-08-11T20:18:34.707Z,5.60
2018-08-11T20:21:03.244Z,5.47
2018-08-11T20:23:31.638Z,5.00
2018-08-11T20:26:00.127Z,5.23
2018-08-11T20:28:28.528Z,6.03
2018-08-11T20:30:56.894Z,5.83
2018-08-11T20:33:25.317Z,5.80
2018-08-11T20:35:53.609Z,5.93
2018-08-11T20:38:22.006Z,5.90
2018-08-11T20:40:50.364Z,6.00
2018-08-11T20:43:18.684Z,5.53
2018-08-11T20:45:46.971Z,5.57
2018-08-11T20:48:15.242Z,6.03
2018-08-11T20:50:43.503Z,4.87
2018-08-11T20:53:11.794Z,5.37
2018-08-11T20:55:40.197Z,5.77
2018-08-11T20:58:08.513Z,5.60
2018-08-11T21:00:36.907Z,5.30
2018-08-11T21:03:07.118Z,5.07
2018-08-11T21:05:35.424Z,5.43
2018-08-11T21:08:03.745Z,5.10
2018-08-11T21:10:32.095Z,5.63
2018-08-11T21:13:00.430Z,5.80
2018-08-11T21:15:28.764Z,5.53
2018-08-11T21:17:57.044Z,5.43
2018-08-11T21:20:25.347Z,5.70
2018-08-11T21:22:53.645Z,5.33
2018-08-11T21:25:21.968Z,5.23
2018-08-11T21:27:50.269Z,4.77
2018-08-11T21:30:18.589Z,5.10
2018-08-11T21:32:46.892Z,5.13
2018-08-11T21:35:15.200Z,4.83
2018-08-11T21:37:43.480Z,5.40
2018-08-11T21:40:13.698Z,4.80
2018-08-11T21:42:42.452Z,4.70
2018-08-11T21:45:11.150Z,4.80
2018-08-11T21:47:40.231Z,4.90
2018-08-11T21:50:09.349Z,4.63
2018-08-11T21:52:38.156Z,4.80
2018-08-11T21:55:07.116Z,4.60
2018-08-11T21:57:36.223Z,4.80
2018-08-11T22:00:14.409Z,4.60
2018-08-11T22:02:42.777Z,4.53
2018-08-11T22:05:11.092Z,4.53
2018-08-11T22:07:39.370Z,4.10
2018-08-11T22:10:07.713Z,4.23
2018-08-11T22:12:36.020Z,4.60
2018-08-11T22:15:04.436Z,4.23
2018-08-11T22:17:32.751Z,4.30
2018-08-11T22:20:01.053Z,3.83
2018-08-11T22:22:29.344Z,3.67
2018-08-11T22:24:58.096Z,3.63
2018-08-11T22:27:26.406Z,3.50
2018-08-11T22:29:54.684Z,3.67
2018-08-11T22:32:22.965Z,3.60
2018-08-11T22:34:51.255Z,3.63
2018-08-11T22:37:19.518Z,3.57
2018-08-11T22:39:47.802Z,3.70
2018-08-11T22:42:16.108Z,3.50
2018-08-11T22:44:44.369Z,3.70
2018-08-11T22:47:12.719Z,3.53
2018-08-11T22:49:40.941Z,3.87
2018-08-11T22:52:09.278Z,3.80
2018-08-11T22:54:37.589Z,3.80
2018-08-11T22:57:05.947Z,3.50
2018-08-11T22:59:34.280Z,3.57
2018-08-11T23:02:02.599Z,3.67
2018-08-11T23:04:30.881Z,3.50
2018-08-11T23:06:59.173Z,3.40
2018-08-11T23:09:27.481Z,3.70
2018-08-11T23:11:55.762Z,3.60
2018-08-11T23:14:24.096Z,3.50
2018-08-11T23:16:52.389Z,3.40
2018-08-11T23:19:20.702Z,3.67
2018-08-11T23:21:48.999Z,3.60
2018-08-11T23:24:17.279Z,3.53
2018-08-11T23:26:45.565Z,3.60
2018-08-11T23:29:13.885Z,3.83
2018-08-11T23:31:42.165Z,3.30
2018-08-11T23:34:10.460Z,3.47
2018-08-11T23:36:38.773Z,3.67
2018-08-11T23:39:08.350Z,3.37
2018-08-11T23:41:36.628Z,3.80
2018-08-11T23:44:05.205Z,3.60
2018-08-11T23:46:33.495Z,3.37
2018-08-11T23:49:01.945Z,3.33
2018-08-11T23:51:30.274Z,3.47
2018-08-11T23:53:58.566Z,4.10
2018-08-11T23:56:26.939Z,3.60
2018-08-11T23:58:55.222Z,3.70
